Valentine, NE (69201)

10:43 PM CST on December 02, 2016 (GMT -0600)
Valentine EW3958 | | Change Station

Elev 2590 ft 42.88 °N, 100.56 °W | Updated 14 seconds ago

Clear
Clear
20.1 °F
Feels Like 20 °F
N
0.0
Wind Variable Wind from NNW
Gusts 0.0 mph

Today
High -- | Low -- °F
--% Chance of Precip.
Yesterday
High -- | Low -- °F
Precip. -- in
Pressure 30.33 in
Visibility 10.0 miles
Clouds Clear
Windchill 20 °F
Dew Point 18 °F
Humidity 93%
Rainfall 0.00 in
Snow Depth Not available.
7:54 AM 5:08 PM
Waxing Crescent, 12% visible
METAR KVTN 030352Z AUTO 21005KT 10SM CLR M06/M08 A3022 RMK AO2 SLP270 I1000 T10611083
Pressure 30.33 in
Visibility 10.0 miles
Clouds Clear
Windchill 20 °F
Dew Point 18 °F
Humidity 93%
Rainfall 0.00 in
Snow Depth Not available.
7:54 AM 5:08 PM
Waxing Crescent, 12% visible
METAR KVTN 030352Z AUTO 21005KT 10SM CLR M06/M08 A3022 RMK AO2 SLP270 I1000 T10611083

10-Day Weather Forecast

Almanac

Astronomy

Dec. 02, 2016 Rise Set
Actual Time
Civil Twilight
Nautical Twilight
Astronomical Twilight
Moon
Length of Visible Light
Length of Day
Tomorrow will be .
, % of the Moon is Illuminated

Today's Extremes

State Highs State Lows

Community

WunderPhotos

Upload Photos

1,955,411 photos uploaded!

WunderBlog® & News

Nearby

Air Quality

  Air Quality AQ Index Pollutant
Not available.

Snow Depth

Station Depth Elevation

Earthquake Activity

City Distance Mag. Time & Date
Minimum magnitude displayed is 2.5.

Coastal Water Temperatures

Place Temperature

Stations

Nearby Weather Stations

Station Location Temp. Windchill Dew Point Humidity Wind Precip. Elev Updated Type
                   

Watches & Warnings

There are currently no watches in effect.